LGL35EK ELLX-EKCH
Flight info
| Callsign | LGL35EK |
|---|---|
| Flight time | 1h 33m |
| Altitude | 25000 |
| Route | ARCKY N853 ONUNE DCT ROBEG DCT RAMAR DCT MAKEL N851 GESKA Z711 MONAK |
| Aircraft | DH8D/M-SDE2E3FGRY/H |
Departure
| Time | 2026-05-04 17:09 |
|---|---|
| Airport | Luxembourg-Findel International Airport (ELLX) |
Arrival
| Time | 2026-05-04 18:42 |
|---|---|
| Airport | Copenhagen Kastrup Airport (EKCH) |
| Time | Latitude | Longitude | Altitude | Speed | Heading |
|---|---|---|---|---|---|
| 2026-05-04 16:48 | 49.63255 | 6.21426 | 1235 ft | 0 kts | 240° |
| 2026-05-04 17:02 | 49.63256 | 6.21430 | 1234 ft | 2 kts | 242° |
| 2026-05-04 17:02 | 49.63271 | 6.21457 | 1234 ft | 2 kts | 200° |
| 2026-05-04 17:03 | 49.63285 | 6.21459 | 1234 ft | 2 kts | 162° |
| 2026-05-04 17:03 | 49.63292 | 6.21453 | 1234 ft | 0 kts | 148° |
| 2026-05-04 17:05 | 49.63269 | 6.21481 | 1234 ft | 6 kts | 137° |
| 2026-05-04 17:06 | 49.63153 | 6.21598 | 1231 ft | 12 kts | 150° |
| 2026-05-04 17:06 | 49.63094 | 6.21664 | 1230 ft | 9 kts | 116° |
| 2026-05-04 17:07 | 49.63147 | 6.21868 | 1227 ft | 13 kts | 64° |
| 2026-05-04 17:07 | 49.63160 | 6.21911 | 1227 ft | 14 kts | 65° |
| 2026-05-04 17:07 | 49.63123 | 6.22071 | 1224 ft | 8 kts | 150° |
| 2026-05-04 17:07 | 49.63067 | 6.22120 | 1223 ft | 10 kts | 150° |
| 2026-05-04 17:08 | 49.63015 | 6.22150 | 1223 ft | 4 kts | 227° |
| 2026-05-04 17:08 | 49.63002 | 6.22112 | 1223 ft | 2 kts | 240° |
| 2026-05-04 17:08 | 49.62903 | 6.21847 | 1227 ft | 72 kts | 239° |
| 2026-05-04 17:09 | 49.62517 | 6.20806 | 1238 ft | 145 kts | 238° |
| 2026-05-04 17:09 | 49.62019 | 6.19370 | 1654 ft | 158 kts | 241° |
| 2026-05-04 17:09 | 49.61541 | 6.17810 | 2257 ft | 169 kts | 241° |
| 2026-05-04 17:10 | 49.60397 | 6.14601 | 3623 ft | 174 kts | 235° |
| 2026-05-04 17:10 | 49.58506 | 6.09713 | 5544 ft | 181 kts | 235° |
| 2026-05-04 17:11 | 49.57874 | 6.08062 | 6198 ft | 182 kts | 235° |
| 2026-05-04 17:11 | 49.57236 | 6.06391 | 6835 ft | 184 kts | 235° |
| 2026-05-04 17:11 | 49.56895 | 6.02619 | 7944 ft | 209 kts | 301° |
| 2026-05-04 17:12 | 49.58138 | 6.01417 | 8431 ft | 223 kts | 349° |
| 2026-05-04 17:12 | 49.61261 | 6.01427 | 9591 ft | 228 kts | 0° |
| 2026-05-04 17:13 | 49.66027 | 6.01493 | 11325 ft | 232 kts | 358° |
| 2026-05-04 17:14 | 49.70876 | 6.01448 | 12898 ft | 235 kts | 357° |
| 2026-05-04 17:14 | 49.72499 | 6.01419 | 13353 ft | 236 kts | 356° |
| 2026-05-04 17:14 | 49.75788 | 6.01355 | 14125 ft | 237 kts | 356° |
| 2026-05-04 17:15 | 49.77428 | 6.01320 | 14445 ft | 241 kts | 356° |
| 2026-05-04 17:15 | 49.80780 | 6.01237 | 15251 ft | 244 kts | 356° |
| 2026-05-04 17:16 | 49.84158 | 6.01153 | 16065 ft | 244 kts | 356° |
| 2026-05-04 17:16 | 49.89270 | 6.01028 | 17090 ft | 248 kts | 356° |
| 2026-05-04 17:17 | 49.90980 | 6.00985 | 17433 ft | 248 kts | 356° |
| 2026-05-04 17:17 | 49.96195 | 6.00854 | 18383 ft | 251 kts | 356° |
| 2026-05-04 17:18 | 49.97948 | 6.00810 | 18685 ft | 253 kts | 356° |
| 2026-05-04 17:18 | 50.01474 | 6.00720 | 19257 ft | 256 kts | 356° |
| 2026-05-04 17:19 | 50.05050 | 6.00630 | 19776 ft | 260 kts | 356° |
| 2026-05-04 17:19 | 50.08678 | 6.00930 | 20267 ft | 266 kts | 15° |
| 2026-05-04 17:20 | 50.12181 | 6.02937 | 20782 ft | 268 kts | 19° |
| 2026-05-04 17:20 | 50.15662 | 6.04980 | 21285 ft | 268 kts | 19° |
| 2026-05-04 17:20 | 50.17403 | 6.05997 | 21534 ft | 268 kts | 19° |
| 2026-05-04 17:21 | 50.20895 | 6.08032 | 22033 ft | 266 kts | 19° |
| 2026-05-04 17:21 | 50.24314 | 6.10020 | 22526 ft | 262 kts | 19° |
| 2026-05-04 17:22 | 50.26011 | 6.11008 | 22773 ft | 259 kts | 19° |
| 2026-05-04 17:22 | 50.27690 | 6.11984 | 23014 ft | 256 kts | 19° |
| 2026-05-04 17:23 | 50.32919 | 6.14101 | 23823 ft | 277 kts | 6° |
| 2026-05-04 17:23 | 50.34863 | 6.14576 | 24113 ft | 291 kts | 6° |
| 2026-05-04 17:23 | 50.38896 | 6.15561 | 24642 ft | 290 kts | 6° |
| 2026-05-04 17:24 | 50.40878 | 6.16052 | 24866 ft | 288 kts | 6° |
| 2026-05-04 17:24 | 50.46904 | 6.17551 | 24959 ft | 300 kts | 7° |
| 2026-05-04 17:25 | 50.48976 | 6.18072 | 24959 ft | 305 kts | 7° |
| 2026-05-04 17:25 | 50.53234 | 6.19145 | 24958 ft | 315 kts | 7° |
| 2026-05-04 17:26 | 50.57602 | 6.20249 | 24958 ft | 325 kts | 7° |
| 2026-05-04 17:26 | 50.64436 | 6.21986 | 24958 ft | 338 kts | 7° |
| 2026-05-04 17:27 | 50.69106 | 6.23177 | 24960 ft | 344 kts | 7° |
| 2026-05-04 17:27 | 50.73519 | 6.25816 | 24977 ft | 348 kts | 40° |
| 2026-05-04 17:28 | 50.77111 | 6.30993 | 24965 ft | 353 kts | 43° |
| 2026-05-04 17:29 | 50.82550 | 6.38958 | 24965 ft | 358 kts | 43° |
| 2026-05-04 17:29 | 50.88038 | 6.46997 | 24967 ft | 361 kts | 43° |
| 2026-05-04 17:30 | 50.93556 | 6.55098 | 24963 ft | 363 kts | 43° |
| 2026-05-04 17:31 | 50.97255 | 6.60543 | 24960 ft | 364 kts | 43° |
| 2026-05-04 17:31 | 51.02740 | 6.68867 | 24953 ft | 363 kts | 51° |
| 2026-05-04 17:32 | 51.05769 | 6.75175 | 24979 ft | 360 kts | 56° |
| 2026-05-04 17:33 | 51.10274 | 6.84726 | 24944 ft | 362 kts | 54° |
| 2026-05-04 17:33 | 51.11782 | 6.87924 | 24995 ft | 359 kts | 54° |
| 2026-05-04 17:34 | 51.16225 | 6.97367 | 24944 ft | 359 kts | 54° |
| 2026-05-04 17:34 | 51.17713 | 7.00538 | 24959 ft | 359 kts | 54° |
| 2026-05-04 17:35 | 51.22203 | 7.10119 | 24957 ft | 360 kts | 54° |
| 2026-05-04 17:35 | 51.25183 | 7.16484 | 24936 ft | 360 kts | 55° |
| 2026-05-04 17:35 | 51.26680 | 7.19698 | 24967 ft | 359 kts | 54° |
| 2026-05-04 17:36 | 51.28175 | 7.22903 | 24964 ft | 360 kts | 54° |
| 2026-05-04 17:36 | 51.29661 | 7.26093 | 24959 ft | 361 kts | 54° |
| 2026-05-04 17:36 | 51.31154 | 7.29304 | 24956 ft | 361 kts | 54° |
| 2026-05-04 17:36 | 51.32663 | 7.32552 | 24954 ft | 362 kts | 54° |
| 2026-05-04 17:37 | 51.34159 | 7.35777 | 24957 ft | 362 kts | 54° |
| 2026-05-04 17:37 | 51.35652 | 7.38999 | 24955 ft | 362 kts | 54° |
| 2026-05-04 17:37 | 51.37149 | 7.42228 | 24960 ft | 362 kts | 53° |
| 2026-05-04 17:37 | 51.38694 | 7.45476 | 24973 ft | 362 kts | 53° |
| 2026-05-04 17:38 | 51.40228 | 7.48641 | 24965 ft | 363 kts | 53° |
| 2026-05-04 17:38 | 51.41256 | 7.50764 | 24965 ft | 363 kts | 53° |
| 2026-05-04 17:38 | 51.43318 | 7.55031 | 24965 ft | 363 kts | 53° |
| 2026-05-04 17:38 | 51.44858 | 7.58227 | 24969 ft | 363 kts | 53° |
| 2026-05-04 17:39 | 51.47941 | 7.64643 | 24967 ft | 364 kts | 53° |
| 2026-05-04 17:39 | 51.49471 | 7.67833 | 24968 ft | 363 kts | 54° |
| 2026-05-04 17:39 | 51.51003 | 7.71036 | 24970 ft | 363 kts | 53° |
| 2026-05-04 17:40 | 51.52025 | 7.73172 | 24965 ft | 363 kts | 54° |
| 2026-05-04 17:40 | 51.54081 | 7.77479 | 24969 ft | 363 kts | 54° |
| 2026-05-04 17:40 | 51.55086 | 7.79585 | 24961 ft | 363 kts | 54° |
| 2026-05-04 17:40 | 51.56614 | 7.82794 | 24960 ft | 363 kts | 54° |
| 2026-05-04 17:41 | 51.58654 | 7.87086 | 24969 ft | 362 kts | 54° |
| 2026-05-04 17:41 | 51.59667 | 7.89218 | 24965 ft | 362 kts | 54° |
| 2026-05-04 17:41 | 51.61193 | 7.92433 | 24960 ft | 362 kts | 54° |
| 2026-05-04 17:41 | 51.63233 | 7.96737 | 24956 ft | 363 kts | 54° |
| 2026-05-04 17:42 | 51.64241 | 7.98870 | 24957 ft | 363 kts | 54° |
| 2026-05-04 17:42 | 51.65776 | 8.02118 | 24952 ft | 363 kts | 53° |
| 2026-05-04 17:42 | 51.67290 | 8.05325 | 24953 ft | 363 kts | 54° |
| 2026-05-04 17:42 | 51.68823 | 8.08576 | 24953 ft | 364 kts | 54° |
| 2026-05-04 17:43 | 51.70858 | 8.12900 | 24953 ft | 364 kts | 54° |
| 2026-05-04 17:43 | 51.72379 | 8.16137 | 24951 ft | 364 kts | 54° |
| 2026-05-04 17:43 | 51.73412 | 8.18336 | 24946 ft | 365 kts | 54° |
| 2026-05-04 17:43 | 51.75452 | 8.22686 | 24953 ft | 365 kts | 54° |
| 2026-05-04 17:44 | 51.76473 | 8.24867 | 24953 ft | 366 kts | 54° |
| 2026-05-04 17:44 | 51.77992 | 8.28111 | 24951 ft | 366 kts | 53° |
| 2026-05-04 17:44 | 51.79514 | 8.31368 | 24949 ft | 366 kts | 54° |
| 2026-05-04 17:44 | 51.81048 | 8.34657 | 24953 ft | 366 kts | 53° |
| 2026-05-04 17:45 | 51.82583 | 8.37949 | 24952 ft | 366 kts | 53° |
| 2026-05-04 17:45 | 51.84623 | 8.42333 | 24948 ft | 366 kts | 53° |
| 2026-05-04 17:45 | 51.85638 | 8.44516 | 24952 ft | 366 kts | 53° |
| 2026-05-04 17:45 | 51.87651 | 8.48898 | 24941 ft | 366 kts | 56° |
| 2026-05-04 17:46 | 51.88446 | 8.51317 | 24940 ft | 363 kts | 70° |
| 2026-05-04 17:46 | 51.89061 | 8.55232 | 24955 ft | 360 kts | 82° |
| 2026-05-04 17:46 | 51.89457 | 8.59206 | 24952 ft | 359 kts | 84° |
| 2026-05-04 17:46 | 51.89827 | 8.63212 | 24955 ft | 359 kts | 84° |
| 2026-05-04 17:47 | 51.90167 | 8.66940 | 24974 ft | 358 kts | 85° |
| 2026-05-04 17:47 | 51.90634 | 8.72094 | 24974 ft | 359 kts | 85° |
| 2026-05-04 17:47 | 51.90877 | 8.74734 | 24968 ft | 359 kts | 84° |
| 2026-05-04 17:47 | 51.91242 | 8.78692 | 25048 ft | 360 kts | 84° |
| 2026-05-04 17:48 | 51.91607 | 8.82763 | 25324 ft | 369 kts | 85° |
| 2026-05-04 17:48 | 51.91970 | 8.86890 | 25603 ft | 376 kts | 85° |
| 2026-05-04 17:48 | 51.92336 | 8.91134 | 25886 ft | 383 kts | 84° |
| 2026-05-04 17:48 | 51.92706 | 8.95469 | 26163 ft | 388 kts | 85° |
| 2026-05-04 17:49 | 51.93078 | 8.99853 | 26436 ft | 392 kts | 85° |
| 2026-05-04 17:49 | 51.93449 | 9.04211 | 26691 ft | 382 kts | 84° |
| 2026-05-04 17:49 | 51.93807 | 9.08369 | 26917 ft | 371 kts | 84° |
| 2026-05-04 17:49 | 51.94287 | 9.13897 | 26961 ft | 367 kts | 84° |
| 2026-05-04 17:50 | 51.94525 | 9.16655 | 26961 ft | 366 kts | 84° |
| 2026-05-04 17:50 | 51.94873 | 9.20676 | 26966 ft | 364 kts | 84° |
| 2026-05-04 17:50 | 51.95225 | 9.24742 | 26956 ft | 363 kts | 84° |
| 2026-05-04 17:50 | 51.95576 | 9.28793 | 26965 ft | 362 kts | 84° |
| 2026-05-04 17:51 | 51.95920 | 9.32775 | 26961 ft | 361 kts | 84° |
| 2026-05-04 17:51 | 51.96270 | 9.36800 | 26964 ft | 361 kts | 84° |
| 2026-05-04 17:51 | 51.96620 | 9.40846 | 26964 ft | 360 kts | 84° |
| 2026-05-04 17:51 | 51.96974 | 9.44848 | 26960 ft | 360 kts | 82° |
| 2026-05-04 17:52 | 51.97848 | 9.48663 | 26956 ft | 361 kts | 56° |
| 2026-05-04 17:52 | 51.99614 | 9.51436 | 26947 ft | 355 kts | 28° |
| 2026-05-04 17:52 | 52.01901 | 9.52861 | 26976 ft | 350 kts | 12° |
| 2026-05-04 17:52 | 52.04213 | 9.53995 | 26960 ft | 352 kts | 14° |
| 2026-05-04 17:53 | 52.06531 | 9.55338 | 26962 ft | 354 kts | 17° |
| 2026-05-04 17:53 | 52.08835 | 9.56846 | 26960 ft | 355 kts | 19° |
| 2026-05-04 17:53 | 52.11100 | 9.58460 | 26951 ft | 356 kts | 21° |
| 2026-05-04 17:53 | 52.13341 | 9.60156 | 26953 ft | 356 kts | 22° |
| 2026-05-04 17:54 | 52.15454 | 9.61824 | 26961 ft | 356 kts | 23° |
| 2026-05-04 17:54 | 52.17675 | 9.63630 | 26968 ft | 356 kts | 24° |
| 2026-05-04 17:54 | 52.19884 | 9.65469 | 26959 ft | 357 kts | 25° |
| 2026-05-04 17:54 | 52.21780 | 9.67073 | 26953 ft | 356 kts | 25° |
| 2026-05-04 17:55 | 52.23979 | 9.68955 | 26957 ft | 356 kts | 25° |
| 2026-05-04 17:55 | 52.26049 | 9.70747 | 26952 ft | 356 kts | 25° |
| 2026-05-04 17:55 | 52.27989 | 9.72434 | 26946 ft | 355 kts | 25° |
| 2026-05-04 17:55 | 52.30158 | 9.74335 | 26948 ft | 355 kts | 25° |
| 2026-05-04 17:56 | 52.32269 | 9.76190 | 26946 ft | 354 kts | 25° |
| 2026-05-04 17:56 | 52.34452 | 9.78120 | 26939 ft | 355 kts | 26° |
| 2026-05-04 17:56 | 52.36621 | 9.80037 | 26946 ft | 355 kts | 26° |
| 2026-05-04 17:56 | 52.38773 | 9.81947 | 26940 ft | 355 kts | 26° |
| 2026-05-04 17:57 | 52.40944 | 9.83880 | 26944 ft | 356 kts | 26° |
| 2026-05-04 17:57 | 52.43123 | 9.85826 | 26948 ft | 356 kts | 26° |
| 2026-05-04 17:57 | 52.45286 | 9.87758 | 26943 ft | 357 kts | 26° |
| 2026-05-04 17:57 | 52.47457 | 9.89700 | 26942 ft | 357 kts | 26° |
| 2026-05-04 17:58 | 52.49647 | 9.91662 | 26943 ft | 357 kts | 26° |
| 2026-05-04 17:58 | 52.51795 | 9.93589 | 26944 ft | 357 kts | 26° |
| 2026-05-04 17:58 | 52.53989 | 9.95563 | 26938 ft | 358 kts | 26° |
| 2026-05-04 17:58 | 52.56155 | 9.97510 | 26945 ft | 358 kts | 26° |
| 2026-05-04 17:59 | 52.58348 | 9.99485 | 26951 ft | 357 kts | 25° |
| 2026-05-04 17:59 | 52.60525 | 10.01447 | 26942 ft | 358 kts | 26° |
| 2026-05-04 17:59 | 52.64890 | 10.05388 | 26941 ft | 358 kts | 25° |
| 2026-05-04 18:00 | 52.67068 | 10.07361 | 26949 ft | 359 kts | 25° |
| 2026-05-04 18:00 | 52.69247 | 10.09333 | 26943 ft | 359 kts | 25° |
| 2026-05-04 18:00 | 52.71434 | 10.11318 | 26937 ft | 359 kts | 25° |
| 2026-05-04 18:00 | 52.73620 | 10.13301 | 26939 ft | 359 kts | 25° |
| 2026-05-04 18:01 | 52.75791 | 10.15278 | 26941 ft | 359 kts | 25° |
| 2026-05-04 18:01 | 52.77983 | 10.17272 | 26957 ft | 359 kts | 25° |
| 2026-05-04 18:01 | 52.80150 | 10.19246 | 26945 ft | 360 kts | 25° |
| 2026-05-04 18:02 | 52.84521 | 10.23236 | 26923 ft | 361 kts | 25° |
| 2026-05-04 18:02 | 52.86705 | 10.25233 | 26946 ft | 360 kts | 25° |
| 2026-05-04 18:02 | 52.88911 | 10.27255 | 26949 ft | 360 kts | 24° |
| 2026-05-04 18:02 | 52.91103 | 10.29262 | 26941 ft | 361 kts | 24° |
| 2026-05-04 18:03 | 52.93281 | 10.31262 | 26951 ft | 361 kts | 24° |
| 2026-05-04 18:03 | 52.95478 | 10.33280 | 26947 ft | 362 kts | 25° |
| 2026-05-04 18:03 | 52.97684 | 10.35308 | 26957 ft | 362 kts | 25° |
| 2026-05-04 18:03 | 52.99873 | 10.37325 | 26960 ft | 363 kts | 25° |
| 2026-05-04 18:04 | 53.02070 | 10.39350 | 26956 ft | 363 kts | 24° |
| 2026-05-04 18:04 | 53.04291 | 10.41402 | 26944 ft | 364 kts | 24° |
| 2026-05-04 18:04 | 53.08699 | 10.45476 | 26955 ft | 364 kts | 24° |
| 2026-05-04 18:05 | 53.10904 | 10.47516 | 26956 ft | 364 kts | 24° |
| 2026-05-04 18:05 | 53.13071 | 10.49528 | 26951 ft | 363 kts | 24° |
| 2026-05-04 18:05 | 53.15305 | 10.51604 | 26951 ft | 363 kts | 24° |
| 2026-05-04 18:05 | 53.17539 | 10.53680 | 26956 ft | 363 kts | 24° |
| 2026-05-04 18:06 | 53.21932 | 10.57770 | 26958 ft | 364 kts | 24° |
| 2026-05-04 18:06 | 53.24155 | 10.59846 | 26963 ft | 364 kts | 24° |
| 2026-05-04 18:06 | 53.26339 | 10.61885 | 26955 ft | 366 kts | 24° |
| 2026-05-04 18:07 | 53.28575 | 10.63976 | 26952 ft | 366 kts | 24° |
| 2026-05-04 18:07 | 53.30782 | 10.66044 | 26952 ft | 366 kts | 25° |
| 2026-05-04 18:07 | 53.32959 | 10.68084 | 26956 ft | 366 kts | 24° |
| 2026-05-04 18:07 | 53.35200 | 10.70188 | 26957 ft | 366 kts | 25° |
| 2026-05-04 18:08 | 53.37432 | 10.72281 | 26957 ft | 366 kts | 25° |
| 2026-05-04 18:08 | 53.39637 | 10.74357 | 26946 ft | 367 kts | 25° |
| 2026-05-04 18:08 | 53.41853 | 10.76445 | 26951 ft | 367 kts | 25° |
| 2026-05-04 18:08 | 53.44094 | 10.78560 | 26967 ft | 367 kts | 24° |
| 2026-05-04 18:09 | 53.48526 | 10.82750 | 26957 ft | 368 kts | 24° |
| 2026-05-04 18:09 | 53.52956 | 10.86945 | 26950 ft | 367 kts | 24° |
| 2026-05-04 18:10 | 53.55181 | 10.89055 | 26957 ft | 367 kts | 24° |
| 2026-05-04 18:10 | 53.57398 | 10.91163 | 26957 ft | 368 kts | 24° |
| 2026-05-04 18:10 | 53.59613 | 10.93268 | 26959 ft | 368 kts | 24° |
| 2026-05-04 18:10 | 53.61848 | 10.95397 | 26963 ft | 368 kts | 24° |
| 2026-05-04 18:11 | 53.64063 | 10.97507 | 26961 ft | 368 kts | 24° |
| 2026-05-04 18:11 | 53.66278 | 10.99622 | 26960 ft | 369 kts | 24° |
| 2026-05-04 18:11 | 53.68516 | 11.01762 | 26967 ft | 369 kts | 24° |
| 2026-05-04 18:11 | 53.70758 | 11.03908 | 26967 ft | 369 kts | 24° |
| 2026-05-04 18:12 | 53.72970 | 11.06027 | 26967 ft | 369 kts | 24° |
| 2026-05-04 18:12 | 53.75209 | 11.08175 | 26965 ft | 369 kts | 23° |
| 2026-05-04 18:12 | 53.77427 | 11.10305 | 26965 ft | 369 kts | 24° |
| 2026-05-04 18:12 | 53.79640 | 11.12433 | 26969 ft | 369 kts | 24° |
| 2026-05-04 18:13 | 53.81868 | 11.14578 | 26967 ft | 369 kts | 23° |
| 2026-05-04 18:13 | 53.84123 | 11.16753 | 26963 ft | 370 kts | 23° |
| 2026-05-04 18:13 | 53.88547 | 11.21027 | 26968 ft | 370 kts | 23° |
| 2026-05-04 18:14 | 53.90785 | 11.23192 | 26970 ft | 370 kts | 23° |
| 2026-05-04 18:14 | 53.93026 | 11.25363 | 26967 ft | 370 kts | 23° |
| 2026-05-04 18:14 | 53.95233 | 11.27504 | 26966 ft | 370 kts | 23° |
| 2026-05-04 18:15 | 53.99671 | 11.31817 | 26957 ft | 370 kts | 23° |
| 2026-05-04 18:15 | 54.04129 | 11.36161 | 26949 ft | 370 kts | 23° |
| 2026-05-04 18:15 | 54.06352 | 11.38331 | 26946 ft | 370 kts | 23° |
| 2026-05-04 18:16 | 54.08595 | 11.40522 | 26947 ft | 370 kts | 23° |
| 2026-05-04 18:16 | 54.10800 | 11.42679 | 26949 ft | 370 kts | 23° |
| 2026-05-04 18:16 | 54.13056 | 11.44889 | 26947 ft | 370 kts | 23° |
| 2026-05-04 18:17 | 54.17489 | 11.49243 | 26952 ft | 369 kts | 23° |
| 2026-05-04 18:17 | 54.19722 | 11.51438 | 26951 ft | 369 kts | 23° |
| 2026-05-04 18:17 | 54.24142 | 11.55795 | 26957 ft | 369 kts | 23° |
| 2026-05-04 18:18 | 54.26366 | 11.57991 | 26959 ft | 369 kts | 23° |
| 2026-05-04 18:18 | 54.28584 | 11.60182 | 26954 ft | 369 kts | 23° |
| 2026-05-04 18:18 | 54.30802 | 11.62377 | 26957 ft | 369 kts | 23° |
| 2026-05-04 18:18 | 54.33006 | 11.64561 | 26960 ft | 369 kts | 23° |
| 2026-05-04 18:19 | 54.37431 | 11.68952 | 26691 ft | 372 kts | 24° |
| 2026-05-04 18:19 | 54.39676 | 11.71181 | 26382 ft | 375 kts | 24° |
| 2026-05-04 18:19 | 54.41954 | 11.73447 | 26055 ft | 378 kts | 24° |
| 2026-05-04 18:20 | 54.44214 | 11.75699 | 25674 ft | 379 kts | 24° |
| 2026-05-04 18:20 | 54.46490 | 11.77970 | 25280 ft | 378 kts | 24° |
| 2026-05-04 18:20 | 54.48753 | 11.80234 | 24891 ft | 377 kts | 25° |
| 2026-05-04 18:20 | 54.50995 | 11.82478 | 24504 ft | 375 kts | 25° |
| 2026-05-04 18:21 | 54.53221 | 11.84709 | 24125 ft | 374 kts | 25° |
| 2026-05-04 18:21 | 54.55452 | 11.86951 | 23734 ft | 372 kts | 25° |
| 2026-05-04 18:21 | 54.57680 | 11.89190 | 23357 ft | 371 kts | 25° |
| 2026-05-04 18:21 | 54.59919 | 11.91443 | 22973 ft | 369 kts | 25° |
| 2026-05-04 18:22 | 54.62100 | 11.93642 | 22599 ft | 368 kts | 25° |
| 2026-05-04 18:22 | 54.64275 | 11.96038 | 22214 ft | 369 kts | 29° |
| 2026-05-04 18:22 | 54.66386 | 11.98502 | 21837 ft | 368 kts | 29° |
| 2026-05-04 18:22 | 54.68499 | 12.00973 | 21459 ft | 367 kts | 29° |
| 2026-05-04 18:23 | 54.70589 | 12.03412 | 21087 ft | 365 kts | 29° |
| 2026-05-04 18:23 | 54.72697 | 12.05870 | 20710 ft | 364 kts | 29° |
| 2026-05-04 18:23 | 54.74766 | 12.08280 | 20334 ft | 363 kts | 29° |
| 2026-05-04 18:23 | 54.76864 | 12.10723 | 19952 ft | 362 kts | 29° |
| 2026-05-04 18:24 | 54.78918 | 12.13152 | 19582 ft | 361 kts | 30° |
| 2026-05-04 18:24 | 54.80986 | 12.15637 | 19209 ft | 360 kts | 30° |
| 2026-05-04 18:24 | 54.83015 | 12.18074 | 18828 ft | 358 kts | 30° |
| 2026-05-04 18:24 | 54.85060 | 12.20495 | 18453 ft | 357 kts | 29° |
| 2026-05-04 18:25 | 54.87116 | 12.22852 | 18079 ft | 355 kts | 29° |
| 2026-05-04 18:25 | 54.89181 | 12.25223 | 17693 ft | 354 kts | 29° |
| 2026-05-04 18:25 | 54.91213 | 12.27573 | 17322 ft | 353 kts | 30° |
| 2026-05-04 18:25 | 54.93229 | 12.29926 | 16943 ft | 352 kts | 30° |
| 2026-05-04 18:26 | 54.95254 | 12.32279 | 16568 ft | 353 kts | 30° |
| 2026-05-04 18:26 | 54.97304 | 12.34666 | 16202 ft | 357 kts | 30° |
| 2026-05-04 18:26 | 54.99365 | 12.37071 | 15828 ft | 360 kts | 30° |
| 2026-05-04 18:26 | 55.01447 | 12.39503 | 15458 ft | 362 kts | 29° |
| 2026-05-04 18:27 | 55.03522 | 12.41919 | 15083 ft | 357 kts | 29° |
| 2026-05-04 18:27 | 55.05558 | 12.44291 | 14700 ft | 350 kts | 29° |
| 2026-05-04 18:27 | 55.07573 | 12.46641 | 14315 ft | 344 kts | 29° |
| 2026-05-04 18:27 | 55.09542 | 12.48941 | 13934 ft | 340 kts | 29° |
| 2026-05-04 18:28 | 55.11486 | 12.51217 | 13564 ft | 336 kts | 29° |
| 2026-05-04 18:28 | 55.13341 | 12.53391 | 13207 ft | 333 kts | 29° |
| 2026-05-04 18:28 | 55.15256 | 12.55635 | 12834 ft | 331 kts | 29° |
| 2026-05-04 18:28 | 55.17157 | 12.57870 | 12461 ft | 329 kts | 29° |
| 2026-05-04 18:29 | 55.19035 | 12.60078 | 12091 ft | 327 kts | 29° |
| 2026-05-04 18:29 | 55.20931 | 12.62311 | 11722 ft | 325 kts | 29° |
| 2026-05-04 18:29 | 55.22774 | 12.64456 | 11627 ft | 312 kts | 26° |
| 2026-05-04 18:29 | 55.24703 | 12.65936 | 11317 ft | 301 kts | 13° |
| 2026-05-04 18:30 | 55.28757 | 12.68209 | 10519 ft | 308 kts | 13° |
| 2026-05-04 18:30 | 55.30769 | 12.69335 | 10103 ft | 301 kts | 13° |
| 2026-05-04 18:30 | 55.32744 | 12.70445 | 9699 ft | 297 kts | 13° |
| 2026-05-04 18:31 | 55.34684 | 12.71542 | 9303 ft | 294 kts | 13° |
| 2026-05-04 18:31 | 55.36611 | 12.72633 | 8907 ft | 291 kts | 13° |
| 2026-05-04 18:31 | 55.38515 | 12.73717 | 8626 ft | 283 kts | 13° |
| 2026-05-04 18:31 | 55.40369 | 12.74774 | 8349 ft | 278 kts | 13° |
| 2026-05-04 18:32 | 55.42186 | 12.75812 | 8066 ft | 274 kts | 14° |
| 2026-05-04 18:32 | 55.44003 | 12.76852 | 7779 ft | 271 kts | 14° |
| 2026-05-04 18:32 | 55.45766 | 12.77862 | 7530 ft | 266 kts | 14° |
| 2026-05-04 18:32 | 55.47494 | 12.78852 | 7279 ft | 262 kts | 13° |
| 2026-05-04 18:33 | 55.49218 | 12.79841 | 7011 ft | 260 kts | 13° |
| 2026-05-04 18:33 | 55.50938 | 12.80829 | 6746 ft | 256 kts | 13° |
| 2026-05-04 18:33 | 55.52601 | 12.81788 | 6503 ft | 255 kts | 14° |
| 2026-05-04 18:33 | 55.54285 | 12.82759 | 6261 ft | 255 kts | 14° |
| 2026-05-04 18:34 | 55.55965 | 12.83730 | 6007 ft | 252 kts | 14° |
| 2026-05-04 18:34 | 55.57594 | 12.84821 | 5749 ft | 251 kts | 18° |
| 2026-05-04 18:34 | 55.59200 | 12.85999 | 5491 ft | 247 kts | 18° |
| 2026-05-04 18:34 | 55.60770 | 12.87149 | 5259 ft | 243 kts | 18° |
| 2026-05-04 18:35 | 55.62308 | 12.88288 | 5063 ft | 239 kts | 20° |
| 2026-05-04 18:35 | 55.63801 | 12.89529 | 4991 ft | 238 kts | 21° |
| 2026-05-04 18:35 | 55.65299 | 12.90772 | 5002 ft | 239 kts | 21° |
| 2026-05-04 18:35 | 55.66814 | 12.92023 | 4992 ft | 239 kts | 21° |
| 2026-05-04 18:36 | 55.68310 | 12.93255 | 4992 ft | 237 kts | 21° |
| 2026-05-04 18:36 | 55.69823 | 12.94171 | 4921 ft | 228 kts | 3° |
| 2026-05-04 18:36 | 55.71382 | 12.94248 | 4720 ft | 222 kts | 355° |
| 2026-05-04 18:36 | 55.72922 | 12.94248 | 4453 ft | 220 kts | 355° |
| 2026-05-04 18:37 | 55.74353 | 12.93687 | 4168 ft | 204 kts | 327° |
| 2026-05-04 18:37 | 55.75275 | 12.91902 | 4056 ft | 204 kts | 294° |
| 2026-05-04 18:37 | 55.75463 | 12.89391 | 4005 ft | 210 kts | 263° |
| 2026-05-04 18:37 | 55.75079 | 12.86946 | 3954 ft | 203 kts | 256° |
| 2026-05-04 18:38 | 55.74573 | 12.84659 | 3681 ft | 201 kts | 239° |
| 2026-05-04 18:38 | 55.73553 | 12.82945 | 3362 ft | 201 kts | 224° |
| 2026-05-04 18:38 | 55.72560 | 12.81279 | 2993 ft | 194 kts | 231° |
| 2026-05-04 18:38 | 55.71610 | 12.79665 | 2713 ft | 188 kts | 226° |
| 2026-05-04 18:39 | 55.70609 | 12.78085 | 2478 ft | 196 kts | 227° |
| 2026-05-04 18:39 | 55.69610 | 12.76499 | 2202 ft | 189 kts | 226° |
| 2026-05-04 18:39 | 55.68630 | 12.74972 | 1942 ft | 188 kts | 226° |
| 2026-05-04 18:39 | 55.67675 | 12.73480 | 1680 ft | 178 kts | 226° |
| 2026-05-04 18:40 | 55.66786 | 12.72106 | 1502 ft | 162 kts | 227° |
| 2026-05-04 18:40 | 55.65964 | 12.70817 | 1295 ft | 156 kts | 226° |
| 2026-05-04 18:40 | 55.65194 | 12.69621 | 1114 ft | 143 kts | 227° |
| 2026-05-04 18:40 | 55.64462 | 12.68472 | 882 ft | 136 kts | 227° |
| 2026-05-04 18:41 | 55.63773 | 12.67413 | 679 ft | 129 kts | 226° |
| 2026-05-04 18:41 | 55.63099 | 12.66358 | 564 ft | 130 kts | 227° |
| 2026-05-04 18:41 | 55.62423 | 12.65310 | 350 ft | 129 kts | 226° |
| 2026-05-04 18:41 | 55.61758 | 12.64280 | 144 ft | 125 kts | 226° |
| 2026-05-04 18:42 | 55.61111 | 12.63281 | 42 ft | 121 kts | 226° |
| 2026-05-04 18:42 | 55.60547 | 12.62384 | 23 ft | 77 kts | 219° |
| 2026-05-04 18:42 | 55.60239 | 12.61905 | 21 ft | 50 kts | 219° |
| 2026-05-04 18:42 | 55.60035 | 12.61610 | 20 ft | 16 kts | 224° |
| 2026-05-04 18:43 | 55.60039 | 12.61474 | 20 ft | 8 kts | 313° |
| 2026-05-04 18:43 | 55.60073 | 12.61433 | 20 ft | 4 kts | 8° |
| 2026-05-04 18:43 | 55.60100 | 12.61464 | 20 ft | 4 kts | 39° |
| 2026-05-04 18:43 | 55.60136 | 12.61517 | 20 ft | 10 kts | 40° |
| 2026-05-04 18:44 | 55.60205 | 12.61623 | 21 ft | 14 kts | 42° |
| 2026-05-04 18:44 | 55.60254 | 12.61699 | 21 ft | 13 kts | 41° |
| 2026-05-04 18:44 | 55.60351 | 12.61847 | 21 ft | 14 kts | 40° |
| 2026-05-04 18:44 | 55.60425 | 12.61965 | 22 ft | 14 kts | 42° |
| 2026-05-04 18:45 | 55.60507 | 12.62089 | 22 ft | 16 kts | 40° |
| 2026-05-04 18:45 | 55.60583 | 12.62208 | 23 ft | 11 kts | 41° |
| 2026-05-04 18:45 | 55.60641 | 12.62297 | 23 ft | 10 kts | 43° |
| 2026-05-04 18:45 | 55.60726 | 12.62377 | 23 ft | 18 kts | 13° |
| 2026-05-04 18:46 | 55.60855 | 12.62501 | 24 ft | 22 kts | 43° |
| 2026-05-04 18:46 | 55.60972 | 12.62681 | 24 ft | 22 kts | 41° |
| 2026-05-04 18:46 | 55.61091 | 12.62864 | 25 ft | 22 kts | 41° |
| 2026-05-04 18:46 | 55.61203 | 12.63040 | 25 ft | 21 kts | 41° |
| 2026-05-04 18:47 | 55.61307 | 12.63203 | 25 ft | 18 kts | 40° |
| 2026-05-04 18:47 | 55.61398 | 12.63341 | 25 ft | 16 kts | 41° |
| 2026-05-04 18:47 | 55.61479 | 12.63465 | 25 ft | 14 kts | 41° |
| 2026-05-04 18:47 | 55.61537 | 12.63556 | 25 ft | 2 kts | 42° |
| 2026-05-04 18:48 | 55.61554 | 12.63582 | 25 ft | 3 kts | 41° |
| 2026-05-04 18:48 | 55.61573 | 12.63612 | 25 ft | 0 kts | 40° |
| 2026-05-04 18:53 | 55.61631 | 12.63701 | 25 ft | 14 kts | 41° |
| 2026-05-04 18:53 | 55.61706 | 12.63817 | 25 ft | 13 kts | 41° |
| 2026-05-04 18:53 | 55.61790 | 12.63947 | 24 ft | 18 kts | 41° |
| 2026-05-04 18:53 | 55.61884 | 12.64081 | 24 ft | 16 kts | 29° |
| 2026-05-04 18:54 | 55.61981 | 12.64161 | 24 ft | 14 kts | 25° |
| 2026-05-04 18:54 | 55.62096 | 12.64260 | 23 ft | 22 kts | 24° |
| 2026-05-04 18:54 | 55.62227 | 12.64363 | 23 ft | 18 kts | 2° |
| 2026-05-04 18:54 | 55.62318 | 12.64178 | 23 ft | 26 kts | 303° |
| 2026-05-04 18:55 | 55.62408 | 12.63931 | 24 ft | 21 kts | 306° |
| 2026-05-04 18:55 | 55.62576 | 12.63770 | 24 ft | 0 kts | 6° |
| 2026-05-04 18:57 | 55.62605 | 12.63778 | 24 ft | 15 kts | 13° |
| 2026-05-04 18:57 | 55.62716 | 12.63890 | 23 ft | 18 kts | 32° |
| 2026-05-04 18:57 | 55.62817 | 12.63942 | 23 ft | 14 kts | 314° |
| 2026-05-04 18:57 | 55.62842 | 12.63862 | 23 ft | 2 kts | 335° |
| 2026-05-04 18:58 | 55.62875 | 12.63864 | 23 ft | 4 kts | 11° |
| 2026-05-04 18:58 | 55.62891 | 12.63870 | 23 ft | 0 kts | 12° |